Etusivu
METAR-TAF:

METAR-TAF

Lentoasemat :

Kristianstad, Ruotsi

Leveyspiiri: 55-55N, Pituuspiiri: 014-05E, korkeus merenpinnasta: 23 m

Tämänhetkinen sää

Tämä raportti tehtiin 16 minuuttia sitten, kello 17.20 UTC
Tuuli 6 kn pohjoisen/luoteesta
Lämpötila 0°C
Kosteus 100%
Ilmanpaine 1023 hPa
Näkyvyys: 0550 m
jäätävää sumua

METAR: ESMK 271720Z AUTO 33006KT 0550 R01/P2000N R19/1800D FZFG OVC001/// M00/M00 Q1023

Aika: 18:36 (17:36 UTC)

Sääennuste

Tämä raportti tehtiin 6 tuntia ja 20 minuuttia sitten, kello 11.16 UTC
Ennuste voimassa 27. päivästä klo 12 UTC - 27. päivään klo 16 UTC
Tuuli 4 kn luoteesta
Näkyvyys: 7000 m
Hajonneita pilviä 200 ft:n korkeudessa
Todennäköisyys 40%
27. päivästä klo 12 UTC - 27. päivään klo 16 UTC
Näkyvyys: 0300 m
sumua

TAF: ESMK 271116Z 2712/2716 31004KT 7000 BKN002 PROB40 2712/2716 0300 FG

Säähavainnot ja -ennusteet yli 4000 lentoasemalta (METAR- ja TAF-raportit).

Käytössä olevat sääasemat on merkitty karttaan keltaisilla ja punaisilla pisteillä.

Aseta hiiri pisteen päälle nähdäksesi sääaseman nimen.

Klikkaa sitten nähdäksesi säähavainnot ja -ennusteet.

Kartan vaihtaminen: klikkaa mustalla rastilla varustettuja vihreitä pisteitä, niin voit zoomata sisään; viivalla varustettua vihreää pistettä, niin voit zoomata ulos tai vihreitä nuolia, niin pääset viereisille kartoille.


METAR-TAF: